createdAt,value
2022-07-29T00:09:52.057Z,99.80
2022-07-29T00:12:32.126Z,99.90
2022-07-29T00:14:59.541Z,99.90
2022-07-29T00:17:26.606Z,99.90
2022-07-29T00:19:54.397Z,99.90
2022-07-29T00:22:21.592Z,99.90
2022-07-29T00:24:49.481Z,99.90
2022-07-29T00:27:16.602Z,99.90
2022-07-29T00:29:48.421Z,99.90
2022-07-29T00:32:15.466Z,99.90
2022-07-29T00:35:01.333Z,99.90
2022-07-29T00:37:31.144Z,99.90
2022-07-29T00:39:59.429Z,99.90
2022-07-29T00:42:26.421Z,99.90
2022-07-29T00:44:53.722Z,99.90
2022-07-29T00:47:21.025Z,99.90
2022-07-29T00:49:48.054Z,99.90
2022-07-29T00:52:17.022Z,99.90
2022-07-29T00:54:45.477Z,99.90
2022-07-29T00:57:12.814Z,99.90
2022-07-29T00:59:40.009Z,99.90
2022-07-29T01:02:07.031Z,99.90
2022-07-29T01:04:35.269Z,99.90
2022-07-29T01:07:03.282Z,99.90
2022-07-29T01:09:45.523Z,99.90
2022-07-29T01:12:14.288Z,99.90
2022-07-29T01:14:41.776Z,99.90
2022-07-29T01:17:31.613Z,99.90
2022-07-29T01:20:04.660Z,99.90
2022-07-29T01:22:44.005Z,99.90
2022-07-29T01:25:36.532Z,99.90
2022-07-29T01:28:28.969Z,99.90
2022-07-29T01:33:51.418Z,99.90
2022-07-29T01:36:32.658Z,99.90
2022-07-29T01:39:10.075Z,99.90
2022-07-29T01:41:39.126Z,99.90
2022-07-29T01:44:24.983Z,99.90
2022-07-29T01:46:55.287Z,99.90
2022-07-29T01:49:25.832Z,99.90
2022-07-29T01:52:01.632Z,99.90
2022-07-29T01:54:47.093Z,99.90
2022-07-29T01:57:15.443Z,99.90
2022-07-29T01:59:42.397Z,99.90
2022-07-29T02:02:09.815Z,99.90
2022-07-29T02:04:37.804Z,99.90
2022-07-29T02:07:06.980Z,99.90
2022-07-29T02:09:35.984Z,99.90
2022-07-29T02:12:03.814Z,99.90
2022-07-29T02:14:38.010Z,99.90
2022-07-29T02:17:05.052Z,99.90
2022-07-29T02:19:33.668Z,99.90
2022-07-29T02:22:00.944Z,99.90
2022-07-29T02:24:28.277Z,99.90
2022-07-29T02:26:56.534Z,99.90
2022-07-29T02:29:24.815Z,99.90
2022-07-29T02:31:52.294Z,99.90
2022-07-29T02:34:20.152Z,99.90
2022-07-29T02:36:49.466Z,99.90
2022-07-29T02:39:16.881Z,99.90
2022-07-29T02:41:49.552Z,99.90
2022-07-29T02:44:21.009Z,99.90
2022-07-29T02:46:51.392Z,99.90
2022-07-29T02:49:25.105Z,99.90
2022-07-29T02:52:33.378Z,99.90
2022-07-29T02:55:20.362Z,99.90
2022-07-29T02:58:02.198Z,99.90
2022-07-29T03:00:30.356Z,99.90
2022-07-29T03:03:00.994Z,99.90
2022-07-29T03:05:28.272Z,99.90
2022-07-29T03:08:13.618Z,99.90
2022-07-29T03:10:41.308Z,99.90
2022-07-29T03:13:08.948Z,99.90
2022-07-29T03:15:36.329Z,99.90
2022-07-29T03:18:04.239Z,99.90
2022-07-29T03:20:32.005Z,99.90
2022-07-29T03:22:59.186Z,99.90
2022-07-29T03:25:28.410Z,99.90
2022-07-29T03:27:55.608Z,99.90
2022-07-29T03:30:23.550Z,99.90
2022-07-29T03:32:55.076Z,99.90
2022-07-29T03:35:23.955Z,99.90
2022-07-29T03:37:51.407Z,99.90
2022-07-29T03:40:22.533Z,99.90
2022-07-29T03:42:52.706Z,99.90
2022-07-29T03:45:20.300Z,99.90
2022-07-29T03:47:52.201Z,99.90
2022-07-29T03:50:21.867Z,99.90
2022-07-29T03:52:48.995Z,99.90
2022-07-29T03:55:16.200Z,99.90
2022-07-29T03:57:43.507Z,99.90
2022-07-29T04:00:22.472Z,99.90
2022-07-29T04:02:50.107Z,99.90
2022-07-29T04:05:18.728Z,99.90
2022-07-29T04:07:46.480Z,99.90
2022-07-29T04:10:18.080Z,99.90
2022-07-29T04:12:58.590Z,99.90
2022-07-29T04:15:31.764Z,99.90
2022-07-29T04:18:00.205Z,99.90
2022-07-29T04:20:29.483Z,99.90
2022-07-29T04:22:56.632Z,99.90
2022-07-29T04:25:24.519Z,99.90
2022-07-29T04:28:04.125Z,99.90
2022-07-29T04:30:31.832Z,99.90
2022-07-29T04:32:58.959Z,99.90
2022-07-29T04:35:26.017Z,99.90
2022-07-29T04:37:52.886Z,99.90
2022-07-29T04:40:20.190Z,99.90
2022-07-29T04:42:47.935Z,99.90
2022-07-29T04:45:16.613Z,99.90
2022-07-29T04:47:52.492Z,99.90
2022-07-29T04:50:19.779Z,99.90
2022-07-29T04:52:47.247Z,99.90
2022-07-29T04:55:14.885Z,99.90
2022-07-29T04:57:45.659Z,99.90
2022-07-29T05:00:13.427Z,99.90
2022-07-29T05:02:40.955Z,99.90
2022-07-29T05:05:08.901Z,99.90
2022-07-29T05:07:36.038Z,99.90
2022-07-29T05:10:03.118Z,99.90
2022-07-29T05:12:30.490Z,99.90
2022-07-29T05:14:57.900Z,99.90
2022-07-29T05:17:25.247Z,99.90
2022-07-29T05:19:52.563Z,99.90
2022-07-29T05:22:20.593Z,99.90
2022-07-29T05:24:48.332Z,99.90
2022-07-29T05:27:15.432Z,99.90
2022-07-29T05:29:45.169Z,99.90
2022-07-29T05:32:13.585Z,99.90
2022-07-29T05:34:50.834Z,99.90
2022-07-29T05:37:20.411Z,99.90
2022-07-29T05:39:50.493Z,99.90
2022-07-29T05:42:23.837Z,99.90
2022-07-29T05:44:50.873Z,99.90
2022-07-29T05:47:17.938Z,99.90
2022-07-29T05:49:44.972Z,99.90
2022-07-29T05:52:12.077Z,99.90
2022-07-29T05:54:39.272Z,99.90
2022-07-29T05:57:06.513Z,99.90
2022-07-29T05:59:37.493Z,99.90
2022-07-29T06:02:06.269Z,99.90
2022-07-29T06:04:34.817Z,99.90
2022-07-29T06:07:02.912Z,99.90
2022-07-29T06:09:30.258Z,99.90
2022-07-29T06:11:57.304Z,99.90
2022-07-29T06:14:24.217Z,99.90
2022-07-29T06:16:51.267Z,99.90
2022-07-29T06:19:18.692Z,99.90
2022-07-29T06:21:47.888Z,99.90
2022-07-29T06:24:18.030Z,99.90
2022-07-29T06:26:51.023Z,99.90
2022-07-29T06:29:18.320Z,99.90
2022-07-29T06:31:45.278Z,99.90
2022-07-29T06:34:12.892Z,99.90
2022-07-29T06:36:41.273Z,99.90
2022-07-29T06:39:12.177Z,99.90
2022-07-29T06:41:39.601Z,99.90
2022-07-29T06:44:06.939Z,99.90
2022-07-29T06:46:34.356Z,99.90
2022-07-29T06:49:05.964Z,99.90
2022-07-29T06:51:35.684Z,99.90
2022-07-29T06:54:08.769Z,99.90
2022-07-29T06:56:52.914Z,99.90
2022-07-29T06:59:30.755Z,99.90
2022-07-29T07:02:01.746Z,99.90
2022-07-29T07:04:49.223Z,99.90
2022-07-29T07:07:17.053Z,99.90
2022-07-29T07:09:45.385Z,99.90
2022-07-29T07:12:12.895Z,99.90
2022-07-29T07:14:42.075Z,99.90
2022-07-29T07:17:09.212Z,99.90
2022-07-29T07:19:36.402Z,99.90
2022-07-29T07:22:05.957Z,99.90
2022-07-29T07:24:35.683Z,99.90
2022-07-29T07:27:07.701Z,99.90
2022-07-29T07:29:34.909Z,99.90
2022-07-29T07:32:02.152Z,99.90
2022-07-29T07:34:31.758Z,99.90
2022-07-29T07:36:59.195Z,99.90
2022-07-29T07:39:27.261Z,99.90
2022-07-29T07:41:54.388Z,99.90
2022-07-29T07:44:25.585Z,99.90
2022-07-29T07:46:52.766Z,99.90
2022-07-29T07:49:20.178Z,99.90
2022-07-29T07:51:57.090Z,99.90
2022-07-29T07:54:24.095Z,99.90
2022-07-29T07:56:55.291Z,99.90
2022-07-29T07:59:22.551Z,99.90
2022-07-29T08:01:56.265Z,99.90
2022-07-29T08:04:28.662Z,99.90
2022-07-29T08:06:57.148Z,99.90
2022-07-29T08:09:30.896Z,99.90
2022-07-29T08:12:06.636Z,99.90
2022-07-29T08:14:34.471Z,99.90
2022-07-29T08:22:25.114Z,99.90
2022-07-29T08:24:55.702Z,99.90
2022-07-29T08:27:42.378Z,99.90
2022-07-29T08:30:11.574Z,99.90
2022-07-29T08:32:55.123Z,99.90
2022-07-29T08:35:23.620Z,99.90
2022-07-29T08:37:50.417Z,99.90
2022-07-29T08:40:17.349Z,99.90
2022-07-29T08:42:44.223Z,99.90
2022-07-29T08:45:11.320Z,99.90
2022-07-29T08:47:41.825Z,99.90
2022-07-29T08:50:09.584Z,99.30
2022-07-29T08:52:42.751Z,99.90
2022-07-29T08:55:10.101Z,99.90
2022-07-29T08:57:37.334Z,99.40
2022-07-29T09:00:11.565Z,98.70
2022-07-29T09:02:43.255Z,99.50
2022-07-29T09:05:13.677Z,98.80
2022-07-29T09:07:40.628Z,99.90
2022-07-29T09:10:07.930Z,98.60
2022-07-29T09:12:38.014Z,98.30
2022-07-29T09:15:05.330Z,98.60
2022-07-29T09:18:01.680Z,98.30
2022-07-29T09:20:48.490Z,98.20
2022-07-29T09:23:23.436Z,97.80
2022-07-29T09:25:51.553Z,98.70
2022-07-29T09:28:18.729Z,98.00
2022-07-29T09:31:03.394Z,97.80
2022-07-29T09:33:35.563Z,96.50
2022-07-29T09:36:09.435Z,95.20
2022-07-29T09:38:37.596Z,96.50
2022-07-29T09:41:06.125Z,95.80
2022-07-29T09:43:33.758Z,96.20
2022-07-29T09:46:16.778Z,95.80
2022-07-29T09:48:43.580Z,94.90
2022-07-29T09:51:24.259Z,95.00
2022-07-29T09:53:55.333Z,95.50
2022-07-29T09:56:26.406Z,95.60
2022-07-29T09:59:06.705Z,95.70
2022-07-29T10:01:33.382Z,95.30
2022-07-29T10:04:00.131Z,94.70
2022-07-29T10:06:26.967Z,94.50
2022-07-29T10:08:53.935Z,95.40
2022-07-29T10:11:20.843Z,95.20
2022-07-29T10:13:48.922Z,95.20
2022-07-29T10:16:16.539Z,94.60
2022-07-29T10:18:44.598Z,94.10
2022-07-29T10:21:35.635Z,94.40
2022-07-29T10:23:59.547Z,93.20
2022-07-29T10:26:28.964Z,93.30
2022-07-29T10:28:56.423Z,93.40
2022-07-29T10:31:30.820Z,93.80
2022-07-29T10:34:18.163Z,92.90
2022-07-29T10:37:03.518Z,91.70
2022-07-29T10:39:54.344Z,91.90
2022-07-29T10:42:33.395Z,91.90
2022-07-29T10:45:01.221Z,91.00
2022-07-29T10:47:28.263Z,90.60
2022-07-29T10:49:59.478Z,91.00
2022-07-29T10:52:50.315Z,91.30
2022-07-29T10:55:39.397Z,90.10
2022-07-29T10:58:19.894Z,90.70
2022-07-29T11:00:51.027Z,90.20
2022-07-29T11:03:53.734Z,89.70
2022-07-29T11:06:28.098Z,90.80
2022-07-29T11:09:34.800Z,90.40
2022-07-29T11:12:39.677Z,90.30
2022-07-29T11:15:13.777Z,89.40
2022-07-29T11:17:59.439Z,87.90
2022-07-29T11:20:40.067Z,85.90
2022-07-29T11:23:33.678Z,85.40
2022-07-29T11:26:14.517Z,83.60
2022-07-29T11:28:51.556Z,85.10
2022-07-29T11:31:51.668Z,82.80
2022-07-29T11:34:30.844Z,81.10
2022-07-29T11:37:13.634Z,79.50
2022-07-29T11:39:41.702Z,80.20
2022-07-29T11:42:17.697Z,79.70
2022-07-29T11:44:57.359Z,78.80
2022-07-29T11:47:25.671Z,78.10
2022-07-29T11:49:55.285Z,77.10
2022-07-29T11:52:49.452Z,78.40
2022-07-29T12:08:41.636Z,74.20
2022-07-29T12:11:16.899Z,72.10
2022-07-29T12:13:43.627Z,71.60
2022-07-29T12:16:14.653Z,70.70
2022-07-29T12:18:41.648Z,71.20
2022-07-29T12:21:09.268Z,70.20
2022-07-29T12:23:39.170Z,70.40
2022-07-29T12:26:07.710Z,69.70
2022-07-29T12:28:39.415Z,69.50
2022-07-29T12:31:06.208Z,67.90
2022-07-29T12:33:36.014Z,68.10
2022-07-29T12:36:07.271Z,68.30
2022-07-29T12:38:38.061Z,68.10
2022-07-29T12:41:05.185Z,67.70
2022-07-29T12:43:32.352Z,65.90
2022-07-29T12:45:59.093Z,64.70
2022-07-29T12:48:35.768Z,64.20
2022-07-29T12:51:03.337Z,62.40
2022-07-29T12:53:30.305Z,61.60
2022-07-29T12:55:57.945Z,62.10
2022-07-29T12:58:28.808Z,61.00
2022-07-29T13:01:17.421Z,60.10
2022-07-29T13:03:57.340Z,60.70
2022-07-29T13:06:45.873Z,61.80
2022-07-29T13:09:17.182Z,63.00
2022-07-29T13:11:48.644Z,62.30
2022-07-29T13:14:32.145Z,60.60
2022-07-29T13:17:14.743Z,61.10
2022-07-29T13:19:45.030Z,59.30
2022-07-29T13:22:16.358Z,58.60
2022-07-29T13:24:53.323Z,58.80
2022-07-29T13:27:21.143Z,57.90
2022-07-29T13:29:48.283Z,58.80
2022-07-29T13:32:15.147Z,57.30
2022-07-29T13:34:41.981Z,57.70
2022-07-29T13:37:08.781Z,56.00
2022-07-29T13:39:35.665Z,56.20
2022-07-29T13:42:02.478Z,56.40
2022-07-29T13:44:29.232Z,55.10
2022-07-29T13:46:56.851Z,55.80
2022-07-29T13:49:23.746Z,55.70
2022-07-29T13:51:50.730Z,56.40
2022-07-29T13:54:17.505Z,57.50
2022-07-29T13:56:44.362Z,58.20
2022-07-29T13:59:13.329Z,56.90
2022-07-29T14:01:42.522Z,56.80
2022-07-29T14:04:10.128Z,56.80
2022-07-29T14:06:40.567Z,55.20
2022-07-29T14:09:09.395Z,54.90
2022-07-29T14:11:36.673Z,55.00
2022-07-29T14:14:03.449Z,54.50
2022-07-29T14:16:30.195Z,54.10
2022-07-29T14:18:57.008Z,55.00
2022-07-29T14:21:23.945Z,53.80
2022-07-29T14:23:53.117Z,53.00
2022-07-29T14:26:21.694Z,53.50
2022-07-29T14:28:51.156Z,54.20
2022-07-29T14:31:18.015Z,54.60
2022-07-29T14:33:46.252Z,54.80
2022-07-29T14:36:16.159Z,54.50
2022-07-29T14:38:42.947Z,55.10
2022-07-29T14:41:09.761Z,55.30
2022-07-29T14:43:36.533Z,55.00
2022-07-29T14:46:08.251Z,55.30
2022-07-29T14:48:36.025Z,55.20
2022-07-29T14:51:04.902Z,54.80
2022-07-29T14:53:32.443Z,54.40
2022-07-29T14:56:10.297Z,54.20
2022-07-29T14:58:51.741Z,53.60
2022-07-29T15:01:18.878Z,54.80
2022-07-29T15:03:45.775Z,54.90
2022-07-29T15:06:12.552Z,55.70
2022-07-29T15:08:39.450Z,54.90
2022-07-29T15:11:06.350Z,53.60
2022-07-29T15:13:33.754Z,53.90
2022-07-29T15:16:00.691Z,54.00
2022-07-29T15:18:27.494Z,53.60
2022-07-29T15:20:54.221Z,53.30
2022-07-29T15:23:21.051Z,54.30
2022-07-29T15:25:47.816Z,54.60
2022-07-29T15:28:14.528Z,54.90
2022-07-29T15:30:41.936Z,55.20
2022-07-29T15:33:10.312Z,55.30
2022-07-29T15:35:40.362Z,55.20
2022-07-29T15:38:07.738Z,54.90
2022-07-29T15:40:34.576Z,54.90
2022-07-29T15:43:06.495Z,55.30
2022-07-29T15:45:41.025Z,53.10
2022-07-29T15:48:08.738Z,53.40
2022-07-29T15:50:35.761Z,51.70
2022-07-29T15:53:02.574Z,53.00
2022-07-29T15:55:29.410Z,52.20
2022-07-29T15:58:00.113Z,52.90
2022-07-29T16:00:27.493Z,53.40
2022-07-29T16:02:54.191Z,54.60
2022-07-29T16:05:20.935Z,54.90
2022-07-29T16:07:47.766Z,54.30
2022-07-29T16:10:14.576Z,55.10
2022-07-29T16:12:41.329Z,55.40
2022-07-29T16:15:10.423Z,57.20
2022-07-29T16:17:38.028Z,57.90
2022-07-29T16:20:06.023Z,56.40
2022-07-29T16:22:32.775Z,56.70
2022-07-29T16:24:59.557Z,56.80
2022-07-29T16:27:35.557Z,57.30
2022-07-29T16:30:06.244Z,58.70
2022-07-29T16:32:33.499Z,57.50
2022-07-29T16:35:02.298Z,57.70
2022-07-29T16:37:35.445Z,57.10
2022-07-29T16:40:06.320Z,56.20
2022-07-29T16:42:47.262Z,56.70
2022-07-29T16:45:15.084Z,57.40
2022-07-29T16:47:42.080Z,56.00
2022-07-29T16:50:08.895Z,55.60
2022-07-29T16:52:36.063Z,56.00
2022-07-29T16:55:02.837Z,56.20
2022-07-29T16:57:29.712Z,56.10
2022-07-29T16:59:56.752Z,56.50
2022-07-29T17:02:24.028Z,56.70
2022-07-29T17:04:50.872Z,57.20
2022-07-29T17:07:17.816Z,57.90
2022-07-29T17:09:44.805Z,58.70
2022-07-29T17:12:11.575Z,57.20
2022-07-29T17:14:38.411Z,57.90
2022-07-29T17:17:13.858Z,57.90
2022-07-29T17:19:43.448Z,58.60
2022-07-29T17:22:17.102Z,59.90
2022-07-29T17:24:46.348Z,61.50
2022-07-29T17:27:13.903Z,64.30
2022-07-29T17:29:41.464Z,65.50
2022-07-29T17:32:09.114Z,66.50
2022-07-29T17:34:36.913Z,66.10
2022-07-29T17:37:04.669Z,66.60
2022-07-29T17:39:31.384Z,67.80
2022-07-29T17:41:58.172Z,68.40
2022-07-29T17:44:24.916Z,69.00
2022-07-29T17:46:51.669Z,70.30
2022-07-29T17:49:18.740Z,69.90
2022-07-29T17:51:46.030Z,70.20
2022-07-29T17:54:13.069Z,70.60
2022-07-29T17:56:40.032Z,70.50
2022-07-29T17:59:09.112Z,70.70
2022-07-29T18:01:36.825Z,70.70
2022-07-29T18:04:03.734Z,70.40
2022-07-29T18:06:30.620Z,70.70
2022-07-29T18:08:57.430Z,70.80
2022-07-29T18:11:24.174Z,71.00
2022-07-29T18:13:50.968Z,70.80
2022-07-29T18:16:18.297Z,71.30
2022-07-29T18:18:45.281Z,72.10
2022-07-29T18:21:12.095Z,72.40
2022-07-29T18:23:38.892Z,72.90
2022-07-29T18:26:05.645Z,73.00
2022-07-29T18:28:32.830Z,73.40
2022-07-29T18:31:00.566Z,73.50
2022-07-29T18:33:27.859Z,73.80
2022-07-29T18:36:06.126Z,73.90
2022-07-29T18:38:39.568Z,74.50
2022-07-29T18:41:06.381Z,74.70
2022-07-29T18:43:33.233Z,74.70
2022-07-29T18:46:00.110Z,74.70
2022-07-29T18:48:27.140Z,74.90
2022-07-29T18:50:54.043Z,75.40
2022-07-29T18:53:20.737Z,75.60
2022-07-29T18:55:47.508Z,76.30
2022-07-29T18:58:14.265Z,77.00
2022-07-29T19:00:41.063Z,77.30
2022-07-29T19:03:08.875Z,77.90
2022-07-29T19:05:35.826Z,78.20
2022-07-29T19:08:02.695Z,78.40
2022-07-29T19:10:29.813Z,78.60
2022-07-29T19:12:58.047Z,78.20
2022-07-29T19:15:24.988Z,78.70
2022-07-29T19:17:51.752Z,77.80
2022-07-29T19:20:18.652Z,77.90
2022-07-29T19:22:45.597Z,78.80
2022-07-29T19:25:12.427Z,79.00
2022-07-29T19:27:39.337Z,79.40
2022-07-29T19:30:08.091Z,79.90
2022-07-29T19:32:35.218Z,80.10
2022-07-29T19:35:20.781Z,80.50
2022-07-29T19:37:47.538Z,80.50
2022-07-29T19:40:16.204Z,80.60
2022-07-29T19:42:43.544Z,81.60
2022-07-29T19:45:11.117Z,82.20
2022-07-29T19:47:38.238Z,82.70
2022-07-29T19:50:05.583Z,83.00
2022-07-29T19:52:32.324Z,83.60
2022-07-29T19:55:00.399Z,84.00
2022-07-29T19:57:29.927Z,84.60
2022-07-29T20:00:08.350Z,84.90
2022-07-29T20:02:38.145Z,85.40
2022-07-29T20:05:05.451Z,85.80
2022-07-29T20:07:32.365Z,86.20
2022-07-29T20:09:59.382Z,86.60
2022-07-29T20:12:26.148Z,87.30
2022-07-29T20:14:54.101Z,87.30
2022-07-29T20:17:22.392Z,88.00
2022-07-29T20:19:49.909Z,88.40
2022-07-29T20:22:20.883Z,89.00
2022-07-29T20:24:48.344Z,89.00
2022-07-29T20:27:15.494Z,89.80
2022-07-29T20:29:42.311Z,89.80
2022-07-29T20:32:09.110Z,90.00
2022-07-29T20:34:35.812Z,90.30
2022-07-29T20:37:02.973Z,90.30
2022-07-29T20:39:30.347Z,90.40
2022-07-29T20:41:57.232Z,90.50
2022-07-29T20:44:24.366Z,90.70
2022-07-29T20:46:51.657Z,90.70
2022-07-29T20:49:18.605Z,90.80
2022-07-29T20:51:45.491Z,90.90
2022-07-29T20:54:12.515Z,91.10
2022-07-29T20:56:39.585Z,91.10
2022-07-29T20:59:06.305Z,91.20
2022-07-29T21:01:33.200Z,91.30
2022-07-29T21:04:01.268Z,91.40
2022-07-29T21:06:27.942Z,91.60
2022-07-29T21:08:57.840Z,91.60
2022-07-29T21:11:44.079Z,91.70
2022-07-29T21:14:37.899Z,91.90
2022-07-29T21:17:07.045Z,92.10
2022-07-29T21:19:34.432Z,92.10
2022-07-29T21:22:01.242Z,92.20
2022-07-29T21:24:28.035Z,92.30
2022-07-29T21:27:20.883Z,92.30
2022-07-29T21:29:48.444Z,92.60
2022-07-29T21:32:30.081Z,92.70
2022-07-29T21:34:57.734Z,92.90
2022-07-29T21:37:24.538Z,92.90
2022-07-29T21:39:51.412Z,93.20
2022-07-29T21:42:18.328Z,93.00
2022-07-29T21:44:45.366Z,93.20
2022-07-29T21:47:12.187Z,93.30
2022-07-29T21:49:39.073Z,93.30
2022-07-29T21:52:06.278Z,93.30
2022-07-29T21:54:34.814Z,93.50
2022-07-29T21:57:01.928Z,93.70
2022-07-29T21:59:29.448Z,93.70
2022-07-29T22:01:56.445Z,93.70
2022-07-29T22:04:23.352Z,93.70
2022-07-29T22:06:50.133Z,93.70
2022-07-29T22:09:17.011Z,93.80
2022-07-29T22:11:43.860Z,93.70
2022-07-29T22:14:10.663Z,93.80
2022-07-29T22:16:37.462Z,93.70
2022-07-29T22:19:04.265Z,93.80
2022-07-29T22:21:31.111Z,93.70
2022-07-29T22:23:58.282Z,93.80
2022-07-29T22:26:25.086Z,93.80
2022-07-29T22:28:51.872Z,93.90
2022-07-29T22:31:18.698Z,93.90
2022-07-29T22:33:45.468Z,94.00
2022-07-29T22:36:12.245Z,94.10
2022-07-29T22:38:39.514Z,94.20
2022-07-29T22:41:06.414Z,94.50
2022-07-29T22:43:33.203Z,94.60
2022-07-29T22:45:59.991Z,94.80
2022-07-29T22:48:26.975Z,95.10
2022-07-29T22:50:53.672Z,95.30
2022-07-29T22:53:20.414Z,95.30
2022-07-29T22:55:47.170Z,95.30
2022-07-29T22:58:13.924Z,95.50
2022-07-29T23:00:41.289Z,95.60
2022-07-29T23:03:07.990Z,95.50
2022-07-29T23:05:34.776Z,95.60
2022-07-29T23:08:01.599Z,95.60
2022-07-29T23:10:28.618Z,95.60
2022-07-29T23:12:55.331Z,95.70
2022-07-29T23:15:23.028Z,96.10
2022-07-29T23:17:49.755Z,95.90
2022-07-29T23:20:16.539Z,95.90
2022-07-29T23:22:43.320Z,96.00
2022-07-29T23:25:10.173Z,96.10
2022-07-29T23:27:36.891Z,96.10
2022-07-29T23:30:04.608Z,96.20
2022-07-29T23:32:31.434Z,96.20
2022-07-29T23:34:58.146Z,96.30
2022-07-29T23:37:26.887Z,96.40
2022-07-29T23:39:54.017Z,96.30
2022-07-29T23:42:20.817Z,96.40
2022-07-29T23:44:47.582Z,96.60
2022-07-29T23:47:14.533Z,96.60
2022-07-29T23:49:41.232Z,96.60
2022-07-29T23:52:08.102Z,96.70
2022-07-29T23:54:35.047Z,96.90
2022-07-29T23:57:02.013Z,96.90
2022-07-29T23:59:28.988Z,96.90
